createdAt,value
2017-09-20T00:02:01.285Z,6.60
2017-09-20T00:04:29.593Z,6.60
2017-09-20T00:06:57.852Z,6.60
2017-09-20T00:09:26.131Z,6.60
2017-09-20T00:11:54.395Z,6.50
2017-09-20T00:14:22.712Z,6.50
2017-09-20T00:16:50.981Z,6.40
2017-09-20T00:19:19.255Z,6.40
2017-09-20T00:21:47.560Z,6.40
2017-09-20T00:24:15.827Z,6.40
2017-09-20T00:26:44.868Z,6.40
2017-09-20T00:29:13.135Z,6.40
2017-09-20T00:31:41.660Z,6.40
2017-09-20T00:34:09.929Z,6.50
2017-09-20T00:36:38.448Z,6.50
2017-09-20T00:39:06.736Z,6.50
2017-09-20T00:41:35.764Z,6.60
2017-09-20T00:44:04.035Z,6.60
2017-09-20T00:46:32.308Z,6.70
2017-09-20T00:49:00.588Z,6.70
2017-09-20T00:51:29.615Z,6.80
2017-09-20T00:53:57.897Z,6.70
2017-09-20T00:56:27.072Z,6.80
2017-09-20T00:58:55.363Z,6.80
2017-09-20T01:01:23.629Z,6.90
2017-09-20T01:03:51.901Z,7.00
2017-09-20T01:06:20.940Z,7.20
2017-09-20T01:08:49.240Z,7.10
2017-09-20T01:11:17.525Z,7.20
2017-09-20T01:13:45.806Z,7.20
2017-09-20T01:16:14.093Z,7.20
2017-09-20T01:18:42.764Z,7.20
2017-09-20T01:21:24.513Z,7.20
2017-09-20T01:23:52.829Z,7.20
2017-09-20T01:26:21.879Z,7.40
2017-09-20T01:28:50.180Z,7.30
2017-09-20T01:31:19.225Z,7.50
2017-09-20T01:33:47.491Z,7.40
2017-09-20T01:36:15.791Z,7.60
2017-09-20T01:38:44.054Z,7.60
2017-09-20T01:41:12.317Z,7.60
2017-09-20T01:43:40.603Z,7.50
2017-09-20T01:46:10.028Z,7.50
2017-09-20T01:48:38.309Z,7.50
2017-09-20T01:51:07.334Z,7.40
2017-09-20T01:53:35.611Z,7.30
2017-09-20T01:56:03.868Z,7.40
2017-09-20T01:58:32.197Z,7.40
2017-09-20T02:01:00.447Z,7.50
2017-09-20T02:03:28.709Z,7.60
2017-09-20T02:05:56.983Z,7.70
2017-09-20T02:08:25.248Z,7.80
2017-09-20T02:10:53.528Z,7.70
2017-09-20T02:13:21.788Z,7.60
2017-09-20T02:15:50.059Z,7.60
2017-09-20T02:18:18.332Z,7.60
2017-09-20T02:20:46.611Z,7.70
2017-09-20T02:23:15.642Z,7.80
2017-09-20T02:25:44.088Z,7.80
2017-09-20T02:28:12.364Z,7.80
2017-09-20T02:30:40.619Z,7.70
2017-09-20T02:33:08.905Z,7.70
2017-09-20T02:35:37.168Z,7.60
2017-09-20T02:38:05.463Z,7.60
2017-09-20T02:40:34.499Z,7.60
2017-09-20T02:43:02.756Z,7.60
2017-09-20T02:45:31.092Z,7.60
2017-09-20T02:47:59.340Z,7.60
2017-09-20T02:50:27.617Z,7.80
2017-09-20T02:52:55.893Z,7.70
2017-09-20T02:55:24.168Z,7.90
2017-09-20T02:57:52.424Z,7.80
2017-09-20T03:00:20.735Z,7.70
2017-09-20T03:02:49.759Z,7.70
2017-09-20T03:05:18.023Z,7.70
2017-09-20T03:07:46.314Z,7.70
2017-09-20T03:10:14.587Z,7.70
2017-09-20T03:12:42.865Z,7.80
2017-09-20T03:15:11.900Z,7.80
2017-09-20T03:17:40.176Z,7.80
2017-09-20T03:20:08.447Z,7.90
2017-09-20T03:22:36.729Z,7.90
2017-09-20T03:25:05.084Z,7.90
2017-09-20T03:27:33.396Z,7.90
2017-09-20T03:30:01.667Z,7.90
2017-09-20T03:32:29.924Z,7.90
2017-09-20T03:34:58.208Z,7.90
2017-09-20T03:37:26.464Z,7.90
2017-09-20T03:39:54.752Z,7.90
2017-09-20T03:42:23.020Z,7.90
2017-09-20T03:44:51.296Z,7.90
2017-09-20T03:47:20.324Z,7.80
2017-09-20T03:49:48.728Z,7.80
2017-09-20T03:52:18.967Z,7.80
2017-09-20T03:54:47.268Z,7.80
2017-09-20T03:57:15.527Z,7.90
2017-09-20T03:59:43.833Z,8.00
2017-09-20T04:02:13.040Z,7.90
2017-09-20T04:04:41.309Z,7.80
2017-09-20T04:07:09.587Z,7.80
2017-09-20T04:09:37.845Z,7.80
2017-09-20T04:12:06.120Z,7.80
2017-09-20T04:14:34.388Z,7.80
2017-09-20T04:17:02.668Z,7.80
2017-09-20T04:19:30.920Z,7.80
2017-09-20T04:21:59.209Z,7.80
2017-09-20T04:24:28.220Z,8.00
2017-09-20T04:26:56.500Z,7.90
2017-09-20T04:29:24.776Z,7.90
2017-09-20T04:31:53.052Z,7.90
2017-09-20T04:34:22.113Z,7.90
2017-09-20T04:36:50.424Z,7.80
2017-09-20T04:39:18.704Z,7.90
2017-09-20T04:41:46.984Z,8.00
2017-09-20T04:44:15.275Z,8.10
2017-09-20T04:46:43.608Z,8.10
2017-09-20T04:49:11.891Z,8.00
2017-09-20T04:51:40.157Z,8.00
2017-09-20T04:54:08.441Z,7.90
2017-09-20T04:56:36.721Z,7.90
2017-09-20T04:59:05.249Z,7.80
2017-09-20T05:01:33.516Z,7.80
2017-09-20T05:04:02.558Z,8.00
2017-09-20T05:06:30.865Z,7.90
2017-09-20T05:08:59.913Z,7.90
2017-09-20T05:11:28.200Z,7.90
2017-09-20T05:13:56.444Z,7.80
2017-09-20T05:16:24.719Z,7.80
2017-09-20T05:18:53.748Z,7.80
2017-09-20T05:21:22.063Z,7.70
2017-09-20T05:23:51.088Z,7.70
2017-09-20T05:26:19.353Z,7.70
2017-09-20T05:28:47.637Z,7.70
2017-09-20T05:31:15.899Z,7.80
2017-09-20T05:33:44.180Z,7.80
2017-09-20T05:36:13.204Z,7.90
2017-09-20T05:38:41.484Z,7.90
2017-09-20T05:41:09.752Z,8.00
2017-09-20T05:43:38.064Z,8.10
2017-09-20T05:46:06.325Z,8.10
2017-09-20T05:48:34.588Z,8.10
2017-09-20T05:51:02.864Z,8.20
2017-09-20T05:53:31.120Z,8.20
2017-09-20T05:55:59.396Z,8.30
2017-09-20T05:58:27.664Z,8.40
2017-09-20T06:00:55.960Z,8.40
2017-09-20T06:03:24.228Z,8.40
2017-09-20T06:05:52.512Z,8.50
2017-09-20T06:08:20.792Z,8.50
2017-09-20T06:10:49.060Z,8.50
2017-09-20T06:13:17.675Z,8.60
2017-09-20T06:15:47.460Z,8.80
2017-09-20T06:18:16.527Z,8.90
2017-09-20T06:20:44.796Z,8.80
2017-09-20T06:23:13.073Z,9.00
2017-09-20T06:25:41.357Z,9.20
2017-09-20T06:28:09.642Z,9.30
2017-09-20T06:30:37.955Z,9.30
2017-09-20T06:33:06.988Z,9.40
2017-09-20T06:35:35.278Z,9.30
2017-09-20T06:38:03.535Z,9.40
2017-09-20T06:40:31.821Z,9.40
2017-09-20T06:43:00.880Z,9.50
2017-09-20T06:45:29.172Z,9.40
2017-09-20T06:47:58.196Z,9.50
2017-09-20T06:50:26.459Z,9.40
2017-09-20T06:52:54.736Z,9.60
2017-09-20T06:55:23.008Z,9.70
2017-09-20T06:57:51.284Z,9.80
2017-09-20T07:00:20.328Z,10.10
2017-09-20T07:02:48.638Z,10.00
2017-09-20T07:05:16.933Z,10.10
2017-09-20T07:07:45.218Z,10.20
2017-09-20T07:10:13.544Z,10.30
2017-09-20T07:12:41.852Z,10.40
2017-09-20T07:15:10.123Z,10.50
2017-09-20T07:17:38.408Z,10.60
2017-09-20T07:20:06.696Z,10.70
2017-09-20T07:22:35.040Z,10.90
2017-09-20T07:25:03.477Z,11.00
2017-09-20T07:27:32.528Z,11.10
2017-09-20T07:30:00.803Z,11.10
2017-09-20T07:32:29.215Z,11.20
2017-09-20T07:34:57.487Z,11.20
2017-09-20T07:37:25.793Z,11.20
2017-09-20T07:39:54.477Z,11.20
2017-09-20T07:42:22.780Z,11.30
2017-09-20T07:44:51.057Z,11.50
2017-09-20T07:47:19.333Z,11.50
2017-09-20T07:49:47.629Z,11.70
2017-09-20T07:52:16.701Z,11.90
2017-09-20T07:54:45.758Z,11.90
2017-09-20T07:57:14.037Z,11.90
2017-09-20T07:59:42.408Z,11.90
2017-09-20T08:02:10.676Z,11.80
2017-09-20T08:04:39.736Z,11.90
2017-09-20T08:07:08.014Z,11.80
2017-09-20T08:09:37.079Z,12.00
2017-09-20T08:12:07.623Z,12.10
2017-09-20T08:14:35.926Z,12.10
2017-09-20T08:17:04.212Z,12.30
2017-09-20T08:19:32.593Z,12.30
2017-09-20T08:22:00.861Z,12.30
2017-09-20T08:24:29.912Z,12.10
2017-09-20T08:26:58.204Z,12.10
2017-09-20T08:29:27.248Z,12.20
2017-09-20T08:31:57.056Z,12.20
2017-09-20T08:34:25.372Z,12.20
2017-09-20T08:36:53.673Z,12.30
2017-09-20T08:39:22.749Z,12.40
2017-09-20T08:41:51.153Z,12.30
2017-09-20T08:44:19.427Z,12.40
2017-09-20T08:46:47.708Z,12.50
2017-09-20T08:49:16.008Z,12.40
2017-09-20T08:51:44.280Z,12.30
2017-09-20T08:54:12.584Z,12.30
2017-09-20T08:56:41.641Z,12.40
2017-09-20T08:59:09.931Z,12.40
2017-09-20T09:01:38.226Z,12.50
2017-09-20T09:04:06.538Z,12.50
2017-09-20T09:06:35.571Z,12.70
2017-09-20T09:09:04.817Z,12.60
2017-09-20T09:11:33.109Z,13.00
2017-09-20T09:14:02.157Z,13.50
2017-09-20T09:16:30.452Z,13.50
2017-09-20T09:18:58.731Z,13.70
2017-09-20T09:21:27.037Z,13.50
2017-09-20T09:23:56.076Z,13.50
2017-09-20T09:26:24.708Z,13.50
2017-09-20T09:28:52.996Z,13.70
2017-09-20T09:31:22.079Z,13.40
2017-09-20T09:33:51.116Z,13.40
2017-09-20T09:36:19.392Z,13.30
2017-09-20T09:38:48.116Z,13.30
2017-09-20T09:41:16.392Z,13.30
2017-09-20T09:43:45.472Z,13.40
2017-09-20T09:46:13.743Z,13.30
2017-09-20T09:48:42.037Z,13.50
2017-09-20T09:51:10.535Z,13.60
2017-09-20T09:53:39.605Z,13.60
2017-09-20T09:56:07.899Z,13.50
2017-09-20T09:58:36.184Z,13.70
2017-09-20T10:01:04.488Z,13.70
2017-09-20T10:03:33.548Z,13.70
2017-09-20T10:06:01.900Z,13.70
2017-09-20T10:08:30.176Z,14.00
2017-09-20T10:10:58.481Z,14.20
2017-09-20T10:13:26.768Z,14.20
2017-09-20T10:15:55.065Z,14.40
2017-09-20T10:18:24.848Z,14.20
2017-09-20T10:20:53.151Z,14.20
2017-09-20T10:23:22.200Z,14.20
2017-09-20T10:25:50.508Z,14.20
2017-09-20T10:28:19.551Z,14.30
2017-09-20T10:30:47.865Z,14.30
2017-09-20T10:33:16.145Z,14.40
2017-09-20T10:35:44.465Z,14.40
2017-09-20T10:38:12.741Z,14.30
2017-09-20T10:40:41.013Z,14.30
2017-09-20T10:43:09.313Z,14.50
2017-09-20T10:45:37.608Z,14.60
2017-09-20T10:48:06.651Z,14.70
2017-09-20T10:50:34.946Z,14.60
2017-09-20T10:53:04.124Z,14.50
2017-09-20T10:55:33.162Z,14.60
2017-09-20T10:58:01.761Z,14.60
2017-09-20T11:00:30.051Z,14.60
2017-09-20T11:02:58.341Z,14.80
2017-09-20T11:05:26.699Z,15.00
2017-09-20T11:07:54.946Z,15.40
2017-09-20T11:10:23.239Z,15.50
2017-09-20T11:12:51.507Z,15.80
2017-09-20T11:15:19.793Z,15.80
2017-09-20T11:17:48.828Z,16.00
2017-09-20T11:20:17.156Z,15.90
2017-09-20T11:22:45.436Z,16.00
2017-09-20T11:25:13.775Z,16.10
2017-09-20T11:27:42.825Z,16.30
2017-09-20T11:30:11.096Z,16.30
2017-09-20T11:32:39.386Z,16.60
2017-09-20T11:35:07.655Z,16.50
2017-09-20T11:37:35.948Z,16.50
2017-09-20T11:40:04.221Z,16.70
2017-09-20T11:42:32.520Z,17.00
2017-09-20T11:45:01.552Z,17.30
2017-09-20T11:47:30.760Z,17.20
2017-09-20T11:49:59.837Z,17.00
2017-09-20T11:52:29.339Z,17.10
2017-09-20T11:54:58.388Z,17.00
2017-09-20T11:57:26.663Z,17.00
2017-09-20T11:59:54.944Z,16.90
2017-09-20T12:02:23.984Z,16.30
2017-09-20T12:04:52.284Z,16.20
2017-09-20T12:07:21.340Z,16.30
2017-09-20T12:09:50.532Z,16.20
2017-09-20T12:12:18.820Z,16.40
2017-09-20T12:14:47.867Z,16.30
2017-09-20T12:17:16.160Z,16.30
2017-09-20T12:19:44.417Z,16.40
2017-09-20T12:22:13.472Z,16.50
2017-09-20T12:24:41.748Z,16.40
2017-09-20T12:27:10.799Z,16.30
2017-09-20T12:29:39.072Z,16.20
2017-09-20T12:32:07.355Z,16.20
2017-09-20T12:34:36.400Z,16.50
2017-09-20T12:37:04.693Z,16.50
2017-09-20T12:39:32.964Z,17.00
2017-09-20T12:42:01.267Z,17.20
2017-09-20T12:44:29.536Z,17.20
2017-09-20T12:46:57.817Z,17.50
2017-09-20T12:49:26.115Z,17.70
2017-09-20T12:51:54.561Z,17.70
2017-09-20T12:54:22.852Z,17.50
2017-09-20T12:56:51.892Z,16.80
2017-09-20T12:59:20.188Z,16.80
2017-09-20T13:01:50.088Z,16.80
2017-09-20T13:04:19.164Z,17.00
2017-09-20T13:06:47.456Z,17.00
2017-09-20T13:09:15.737Z,17.30
2017-09-20T13:11:44.057Z,17.60
2017-09-20T13:14:12.330Z,17.60
2017-09-20T13:16:41.382Z,17.00
2017-09-20T13:19:09.668Z,17.00
2017-09-20T13:21:39.715Z,16.80
2017-09-20T13:24:08.004Z,16.80
2017-09-20T13:26:36.300Z,17.30
2017-09-20T13:29:04.580Z,18.00
2017-09-20T13:31:32.876Z,18.20
2017-09-20T13:34:01.150Z,18.40
2017-09-20T13:36:29.976Z,18.50
2017-09-20T13:38:58.280Z,18.80
2017-09-20T13:41:26.560Z,19.10
2017-09-20T13:43:55.624Z,19.00
2017-09-20T13:46:23.900Z,19.00
2017-09-20T13:48:52.956Z,18.50
2017-09-20T13:51:21.236Z,18.50
2017-09-20T13:53:49.538Z,18.30
2017-09-20T13:56:17.871Z,17.90
2017-09-20T13:58:46.168Z,17.70
2017-09-20T14:01:14.443Z,17.30
2017-09-20T14:03:42.732Z,17.10
2017-09-20T14:06:11.013Z,17.00
2017-09-20T14:08:40.049Z,16.60
2017-09-20T14:11:08.766Z,16.60
2017-09-20T14:13:37.796Z,16.10
2017-09-20T14:16:06.088Z,16.10
2017-09-20T14:18:34.366Z,16.00
2017-09-20T14:21:03.406Z,15.90
2017-09-20T14:23:31.772Z,15.80
2017-09-20T14:26:00.043Z,15.90
2017-09-20T14:28:28.334Z,15.90
2017-09-20T14:30:57.369Z,15.90
2017-09-20T14:33:25.656Z,15.80
2017-09-20T14:35:53.933Z,15.60
2017-09-20T14:38:22.980Z,15.70
2017-09-20T14:40:51.248Z,15.60
2017-09-20T14:43:19.552Z,15.70
2017-09-20T14:45:47.827Z,15.60
2017-09-20T14:48:16.120Z,15.60
2017-09-20T14:50:44.389Z,15.50
2017-09-20T14:53:12.824Z,15.50
2017-09-20T14:55:41.101Z,15.50
2017-09-20T14:58:09.378Z,15.40
2017-09-20T15:00:37.661Z,15.40
2017-09-20T15:03:05.966Z,15.30
2017-09-20T15:05:34.996Z,15.30
2017-09-20T15:08:03.276Z,15.20
2017-09-20T15:10:32.336Z,15.30
2017-09-20T15:13:00.606Z,15.30
2017-09-20T15:15:28.892Z,15.20
2017-09-20T15:17:57.160Z,15.10
2017-09-20T15:20:25.448Z,15.20
2017-09-20T15:22:53.732Z,15.40
2017-09-20T15:25:22.019Z,15.60
2017-09-20T15:30:26.056Z,15.50
2017-09-20T15:32:54.329Z,15.50
2017-09-20T15:35:22.642Z,15.30
2017-09-20T15:37:50.937Z,15.10
2017-09-20T15:40:20.002Z,14.90
2017-09-20T15:42:48.290Z,14.90
2017-09-20T15:45:16.612Z,14.70
2017-09-20T15:47:44.875Z,14.60
2017-09-20T15:50:13.141Z,14.60
2017-09-20T15:52:41.432Z,14.40
2017-09-20T15:55:10.472Z,14.20
2017-09-20T15:57:38.804Z,14.20
2017-09-20T16:00:07.048Z,14.20
2017-09-20T16:02:35.330Z,14.20
2017-09-20T16:05:03.603Z,14.20
2017-09-20T16:07:31.907Z,14.10
2017-09-20T16:10:00.940Z,14.00
2017-09-20T16:12:29.216Z,14.00
2017-09-20T16:14:57.505Z,14.00
2017-09-20T16:17:26.543Z,13.90
2017-09-20T16:19:54.823Z,13.80
2017-09-20T16:22:23.092Z,13.80
2017-09-20T16:24:51.381Z,13.80
2017-09-20T16:27:19.644Z,13.80
2017-09-20T16:29:47.940Z,13.80
2017-09-20T16:32:16.215Z,13.80
2017-09-20T16:34:44.525Z,14.20
2017-09-20T16:37:13.762Z,14.90
2017-09-20T16:39:42.087Z,14.80
2017-09-20T16:42:10.357Z,15.00
2017-09-20T16:44:38.628Z,15.00
2017-09-20T16:47:06.909Z,14.90
2017-09-20T16:49:35.180Z,14.70
2017-09-20T16:52:03.460Z,14.50
2017-09-20T16:54:32.493Z,14.00
2017-09-20T16:57:00.800Z,14.00
2017-09-20T16:59:29.840Z,13.80
2017-09-20T17:01:58.892Z,13.70
2017-09-20T17:04:27.181Z,13.70
2017-09-20T17:06:55.449Z,13.60
2017-09-20T17:09:23.736Z,13.50
2017-09-20T17:11:52.808Z,13.40
2017-09-20T17:14:21.099Z,13.40
2017-09-20T17:16:50.154Z,13.20
2017-09-20T17:19:18.443Z,13.20
2017-09-20T17:21:46.717Z,13.20
2017-09-20T17:24:15.116Z,13.10
2017-09-20T17:26:43.412Z,13.10
2017-09-20T17:29:12.445Z,13.50
2017-09-20T17:31:40.913Z,13.40
2017-09-20T17:34:09.192Z,13.60
2017-09-20T17:36:37.499Z,13.50
2017-09-20T17:39:05.787Z,13.40
2017-09-20T17:41:34.101Z,13.30
2017-09-20T17:44:03.164Z,13.20
2017-09-20T17:46:31.444Z,13.10
2017-09-20T17:48:59.724Z,13.10
2017-09-20T17:51:27.992Z,13.10
2017-09-20T17:53:56.276Z,13.10
2017-09-20T17:56:24.552Z,13.10
2017-09-20T17:58:53.260Z,13.00
2017-09-20T18:01:21.973Z,12.90
2017-09-20T18:03:50.290Z,13.00
2017-09-20T18:06:19.325Z,13.00
2017-09-20T18:08:48.747Z,13.00
2017-09-20T18:11:17.041Z,13.10
2017-09-20T18:13:46.084Z,12.90
2017-09-20T18:16:14.404Z,12.80
2017-09-20T18:18:42.839Z,12.80
2017-09-20T18:21:11.891Z,12.60
2017-09-20T18:23:40.156Z,12.60
2017-09-20T18:26:08.444Z,12.60
2017-09-20T18:28:36.720Z,12.50
2017-09-20T18:31:04.992Z,12.50
2017-09-20T18:33:33.270Z,12.50
2017-09-20T18:36:01.572Z,12.50
2017-09-20T18:38:30.614Z,12.50
2017-09-20T18:40:58.872Z,12.50
2017-09-20T18:43:27.178Z,12.60
2017-09-20T18:45:55.438Z,12.60
2017-09-20T18:48:23.715Z,12.60
2017-09-20T18:50:52.002Z,12.60
2017-09-20T18:53:20.284Z,12.60
2017-09-20T18:55:48.559Z,12.60
2017-09-20T18:58:17.036Z,12.50
2017-09-20T19:00:45.308Z,12.50
2017-09-20T19:03:13.575Z,12.40
2017-09-20T19:05:42.632Z,12.20
2017-09-20T19:08:10.912Z,12.20
2017-09-20T19:10:39.965Z,12.10
2017-09-20T19:13:08.241Z,12.10
2017-09-20T19:15:37.320Z,12.10
2017-09-20T19:18:05.947Z,12.10
2017-09-20T19:20:34.300Z,12.10
2017-09-20T19:23:02.555Z,12.10
2017-09-20T19:25:31.720Z,12.10
2017-09-20T19:28:00.752Z,12.10
2017-09-20T19:30:29.020Z,12.10
2017-09-20T19:33:00.365Z,12.20
2017-09-20T19:35:29.629Z,12.10
2017-09-20T19:37:58.248Z,12.10
2017-09-20T19:40:26.658Z,12.10
2017-09-20T19:42:55.028Z,12.10
2017-09-20T19:45:23.824Z,12.10
2017-09-20T19:47:53.373Z,12.00
2017-09-20T19:50:21.949Z,11.90
2017-09-20T19:52:50.212Z,11.90
2017-09-20T19:55:18.491Z,11.90
2017-09-20T19:57:47.821Z,11.90
2017-09-20T20:00:17.768Z,11.80
2017-09-20T20:02:46.848Z,11.80
2017-09-20T20:05:15.129Z,11.80
2017-09-20T20:07:43.403Z,11.80
2017-09-20T20:10:11.709Z,11.80
2017-09-20T20:12:39.985Z,11.70
2017-09-20T20:15:08.285Z,11.70
2017-09-20T20:17:37.316Z,11.70
2017-09-20T20:20:05.585Z,11.70
2017-09-20T20:22:33.873Z,11.70
2017-09-20T20:25:02.140Z,11.70
2017-09-20T20:27:30.453Z,11.70
2017-09-20T20:29:58.717Z,11.70
2017-09-20T20:32:27.770Z,11.70
2017-09-20T20:34:56.056Z,11.60
2017-09-20T20:37:24.752Z,11.60
2017-09-20T20:39:53.069Z,11.70
2017-09-20T20:42:21.368Z,11.80
2017-09-20T20:44:49.644Z,11.80
2017-09-20T20:47:17.920Z,11.70
2017-09-20T20:49:46.200Z,11.60
2017-09-20T20:52:15.264Z,11.50
2017-09-20T20:54:43.549Z,11.50
2017-09-20T20:57:12.628Z,11.50
2017-09-20T20:59:41.668Z,11.50
2017-09-20T21:02:09.933Z,11.40
2017-09-20T21:04:38.223Z,11.40
2017-09-20T21:07:07.658Z,11.40
2017-09-20T21:09:35.927Z,11.40
2017-09-20T21:12:05.053Z,11.40
2017-09-20T21:14:34.126Z,11.40
2017-09-20T21:17:03.208Z,11.30
2017-09-20T21:19:32.207Z,11.30
2017-09-20T21:22:00.832Z,11.30
2017-09-20T21:24:29.474Z,11.30
2017-09-20T21:26:57.983Z,11.30
2017-09-20T21:29:26.711Z,11.30
2017-09-20T21:31:55.010Z,11.20
2017-09-20T21:34:24.446Z,11.20
2017-09-20T21:36:54.532Z,11.30
2017-09-20T21:39:23.848Z,11.20
2017-09-20T21:41:52.364Z,11.30
2017-09-20T21:44:20.639Z,11.30
2017-09-20T21:46:48.916Z,11.30
2017-09-20T21:49:17.202Z,11.30
2017-09-20T21:51:45.754Z,11.20
2017-09-20T21:54:14.030Z,11.20
2017-09-20T21:56:42.401Z,11.20
2017-09-20T21:59:10.847Z,11.20
2017-09-20T22:01:39.108Z,11.10
2017-09-20T22:04:07.375Z,11.10
2017-09-20T22:06:35.657Z,11.10
2017-09-20T22:09:04.736Z,11.00
2017-09-20T22:11:33.787Z,11.00
2017-09-20T22:14:02.066Z,11.00
2017-09-20T22:16:42.920Z,11.00
2017-09-20T22:19:23.848Z,10.90
2017-09-20T22:22:04.013Z,10.90
2017-09-20T22:24:44.389Z,10.90
2017-09-20T22:27:12.653Z,10.90
2017-09-20T22:29:40.919Z,10.90
2017-09-20T22:32:09.207Z,11.00
2017-09-20T22:34:37.492Z,11.10
2017-09-20T22:37:07.306Z,10.90
2017-09-20T22:39:36.332Z,10.90
2017-09-20T22:42:04.612Z,10.90
2017-09-20T22:44:32.889Z,10.90
2017-09-20T22:47:01.183Z,10.80
2017-09-20T22:49:30.216Z,10.80
2017-09-20T22:51:58.545Z,10.70
2017-09-20T22:54:26.816Z,10.70
2017-09-20T22:56:55.084Z,10.70
2017-09-20T22:59:23.369Z,10.70
2017-09-20T23:01:53.177Z,10.50
2017-09-20T23:04:21.448Z,10.50
2017-09-20T23:06:50.485Z,10.70
2017-09-20T23:09:18.768Z,10.60
2017-09-20T23:11:47.048Z,10.60
2017-09-20T23:14:16.156Z,10.50
2017-09-20T23:16:44.428Z,10.40
2017-09-20T23:19:12.691Z,10.40
2017-09-20T23:21:40.976Z,10.40
2017-09-20T23:24:09.252Z,10.30
2017-09-20T23:26:37.536Z,10.30
2017-09-20T23:29:06.573Z,10.30
2017-09-20T23:31:34.859Z,10.20
2017-09-20T23:34:03.372Z,10.10
2017-09-20T23:36:31.663Z,10.10
2017-09-20T23:38:59.928Z,10.00
2017-09-20T23:41:28.251Z,9.90
2017-09-20T23:43:57.896Z,9.80
2017-09-20T23:46:26.176Z,9.70
2017-09-20T23:48:54.628Z,9.70
2017-09-20T23:51:22.929Z,9.70
2017-09-20T23:53:51.948Z,9.60
2017-09-20T23:56:20.236Z,9.50
2017-09-20T23:58:48.500Z,9.60
